createdAt,value
2018-02-15T00:01:14.879Z,47.75
2018-02-15T00:03:44.683Z,47.79
2018-02-15T00:06:14.606Z,47.59
2018-02-15T00:08:44.536Z,47.74
2018-02-15T00:11:15.374Z,47.56
2018-02-15T00:13:45.955Z,47.31
2018-02-15T00:16:15.688Z,47.43
2018-02-15T00:18:45.528Z,47.33
2018-02-15T00:21:16.160Z,47.51
2018-02-15T00:23:46.811Z,47.26
2018-02-15T00:26:16.531Z,47.28
2018-02-15T00:28:46.377Z,47.10
2018-02-15T00:31:16.280Z,47.01
2018-02-15T00:33:46.161Z,46.98
2018-02-15T00:36:15.909Z,46.66
2018-02-15T00:38:45.711Z,46.81
2018-02-15T00:41:15.532Z,46.67
2018-02-15T00:43:45.322Z,46.72
2018-02-15T00:46:15.164Z,46.58
2018-02-15T00:48:45.101Z,46.67
2018-02-15T00:51:14.863Z,46.26
2018-02-15T00:53:44.839Z,46.44
2018-02-15T00:56:14.556Z,46.24
2018-02-15T00:58:45.218Z,46.21
2018-02-15T01:01:15.240Z,46.18
2018-02-15T01:03:44.950Z,46.14
2018-02-15T01:06:14.688Z,45.81
2018-02-15T01:08:44.380Z,46.02
2018-02-15T01:11:14.192Z,46.14
2018-02-15T01:13:44.675Z,46.06
2018-02-15T01:16:14.477Z,45.76
2018-02-15T01:18:44.412Z,45.89
2018-02-15T01:21:15.148Z,45.67
2018-02-15T01:23:45.651Z,45.54
2018-02-15T01:26:15.397Z,45.62
2018-02-15T01:28:45.380Z,45.33
2018-02-15T01:31:16.188Z,45.77
2018-02-15T01:33:45.889Z,45.38
2018-02-15T01:36:15.831Z,45.32
2018-02-15T01:38:45.635Z,45.31
2018-02-15T01:41:15.323Z,45.25
2018-02-15T01:43:45.112Z,45.24
2018-02-15T01:46:14.848Z,45.17
2018-02-15T01:48:44.911Z,45.17
2018-02-15T01:51:14.620Z,45.29
2018-02-15T01:53:44.419Z,45.40
2018-02-15T01:56:14.242Z,45.26
2018-02-15T01:58:43.986Z,44.96
2018-02-15T02:01:13.735Z,45.09
2018-02-15T02:03:43.532Z,44.84
2018-02-15T02:06:13.471Z,44.95
2018-02-15T02:08:43.319Z,44.92
2018-02-15T02:11:13.872Z,45.01
2018-02-15T02:13:43.642Z,45.02
2018-02-15T02:16:13.544Z,44.87
2018-02-15T02:18:43.651Z,44.83
2018-02-15T02:21:13.515Z,44.79
2018-02-15T02:23:44.233Z,44.78
2018-02-15T02:26:14.836Z,45.05
2018-02-15T02:28:44.528Z,44.86
2018-02-15T02:31:14.324Z,44.89
2018-02-15T02:33:44.413Z,44.97
2018-02-15T02:36:15.136Z,45.18
2018-02-15T02:38:44.991Z,45.07
2018-02-15T02:41:14.968Z,45.27
2018-02-15T02:43:44.677Z,45.07
2018-02-15T02:46:16.091Z,45.45
2018-02-15T02:48:46.023Z,45.37
2018-02-15T02:51:15.941Z,45.54
2018-02-15T02:53:45.874Z,45.58
2018-02-15T02:56:16.460Z,45.51
2018-02-15T02:58:46.290Z,45.54
2018-02-15T03:01:16.120Z,45.68
2018-02-15T03:03:45.946Z,45.78
2018-02-15T03:06:16.474Z,45.94
2018-02-15T03:08:46.427Z,45.94
2018-02-15T03:11:16.267Z,46.02
2018-02-15T03:13:46.181Z,46.34
2018-02-15T03:16:16.018Z,47.23
2018-02-15T03:18:45.702Z,47.57
2018-02-15T03:21:15.751Z,48.29
2018-02-15T03:23:45.556Z,49.70
2018-02-15T03:26:15.428Z,50.40
2018-02-15T03:28:45.239Z,52.39
2018-02-15T03:31:15.092Z,53.48
2018-02-15T03:33:45.092Z,55.33
2018-02-15T03:36:14.975Z,57.02
2018-02-15T03:38:44.666Z,57.46
2018-02-15T03:41:15.247Z,59.25
2018-02-15T03:43:44.945Z,60.83
2018-02-15T03:46:14.667Z,62.33
2018-02-15T03:48:44.442Z,63.28
2018-02-15T03:51:14.411Z,64.26
2018-02-15T03:53:44.285Z,66.21
2018-02-15T03:56:14.288Z,67.12
2018-02-15T03:58:44.841Z,68.14
2018-02-15T04:01:14.649Z,69.97
2018-02-15T04:03:44.444Z,71.25
2018-02-15T04:06:15.100Z,71.83
2018-02-15T04:08:44.778Z,72.73
2018-02-15T04:11:15.478Z,73.49
2018-02-15T04:13:45.155Z,74.43
2018-02-15T04:16:14.878Z,75.02
2018-02-15T04:18:44.768Z,75.47
2018-02-15T04:21:14.520Z,75.92
2018-02-15T04:23:44.362Z,76.96
2018-02-15T04:26:14.208Z,77.00
2018-02-15T04:28:44.007Z,77.08
2018-02-15T04:31:13.712Z,77.38
2018-02-15T04:33:44.314Z,77.36
2018-02-15T04:36:14.077Z,77.70
2018-02-15T04:38:43.916Z,77.81
2018-02-15T04:41:13.624Z,77.43
2018-02-15T04:43:43.504Z,77.93
2018-02-15T04:46:13.338Z,77.82
2018-02-15T04:48:43.048Z,78.07
2018-02-15T04:51:13.104Z,78.27
2018-02-15T04:53:42.838Z,77.97
2018-02-15T04:56:13.465Z,78.10
2018-02-15T04:58:44.044Z,78.18
2018-02-15T05:01:13.900Z,78.25
2018-02-15T05:03:44.404Z,77.53
2018-02-15T05:06:14.381Z,77.94
2018-02-15T05:08:44.166Z,78.08
2018-02-15T05:11:14.792Z,77.97
2018-02-15T05:13:45.040Z,78.47
2018-02-15T05:16:14.719Z,78.34
2018-02-15T05:18:44.446Z,78.31
2018-02-15T05:21:15.168Z,79.28
2018-02-15T05:23:45.045Z,79.47
2018-02-15T05:26:14.883Z,79.75
2018-02-15T05:28:44.660Z,80.32
2018-02-15T05:31:14.547Z,80.85
2018-02-15T05:33:44.279Z,81.20
2018-02-15T05:36:13.947Z,82.00
2018-02-15T05:38:44.902Z,81.63
2018-02-15T05:41:15.462Z,82.09
2018-02-15T05:43:45.167Z,82.01
2018-02-15T05:46:15.020Z,82.10
2018-02-15T05:48:44.914Z,81.80
2018-02-15T05:51:14.643Z,82.32
2018-02-15T05:53:46.413Z,82.27
2018-02-15T05:56:17.957Z,82.17
2018-02-15T05:58:47.743Z,82.03
2018-02-15T06:01:17.806Z,81.92
2018-02-15T06:03:48.476Z,81.92
2018-02-15T06:06:18.415Z,81.92
2018-02-15T06:08:48.923Z,81.85
2018-02-15T06:11:18.748Z,81.47
2018-02-15T06:13:48.657Z,81.41
2018-02-15T06:16:18.422Z,81.44
2018-02-15T06:18:48.584Z,81.00
2018-02-15T06:21:18.392Z,80.97
2018-02-15T06:23:48.230Z,81.09
2018-02-15T06:26:18.015Z,80.74
2018-02-15T06:28:47.944Z,80.69
2018-02-15T06:31:18.056Z,80.51
2018-02-15T06:33:48.012Z,80.07
2018-02-15T06:36:17.819Z,80.13
2018-02-15T06:38:47.893Z,79.89
2018-02-15T06:41:17.931Z,80.93
2018-02-15T06:43:47.736Z,79.29
2018-02-15T06:46:17.951Z,79.17
2018-02-15T06:48:47.989Z,79.14
2018-02-15T06:51:18.744Z,79.15
2018-02-15T06:53:48.958Z,78.90
2018-02-15T06:56:19.384Z,78.88
2018-02-15T06:58:49.848Z,78.91
2018-02-15T07:01:21.130Z,78.81
2018-02-15T07:03:52.240Z,78.82
2018-02-15T07:06:23.136Z,78.19
2018-02-15T07:08:53.457Z,78.47
2018-02-15T07:11:24.233Z,78.05
2018-02-15T07:13:55.367Z,78.05
2018-02-15T07:16:25.325Z,77.89
2018-02-15T07:18:55.206Z,77.48
2018-02-15T07:21:25.803Z,76.99
2018-02-15T07:23:56.347Z,77.39
2018-02-15T07:26:26.284Z,76.96
2018-02-15T07:28:56.043Z,77.04
2018-02-15T07:31:26.070Z,76.76
2018-02-15T07:33:55.892Z,76.71
2018-02-15T07:36:26.072Z,77.33
2018-02-15T07:38:56.028Z,77.28
2018-02-15T07:41:26.079Z,77.62
2018-02-15T07:43:56.651Z,77.15
2018-02-15T07:46:28.229Z,77.13
2018-02-15T07:48:58.575Z,76.90
2018-02-15T07:51:29.328Z,76.63
2018-02-15T07:53:59.645Z,77.09
2018-02-15T07:56:29.576Z,76.18
2018-02-15T07:59:00.358Z,76.41
2018-02-15T08:01:30.141Z,76.01
2018-02-15T08:04:00.054Z,75.94
2018-02-15T08:06:30.484Z,76.31
2018-02-15T08:09:00.307Z,75.92
2018-02-15T08:11:30.260Z,75.44
2018-02-15T08:14:00.113Z,75.55
2018-02-15T08:16:30.653Z,76.10
2018-02-15T08:19:00.408Z,75.30
2018-02-15T08:21:30.447Z,75.91
2018-02-15T08:24:02.256Z,75.31
2018-02-15T08:26:32.182Z,75.40
2018-02-15T08:29:02.300Z,75.07
2018-02-15T08:31:32.627Z,75.35
2018-02-15T08:34:02.664Z,75.68
2018-02-15T08:36:32.453Z,75.66
2018-02-15T08:39:02.883Z,76.77
2018-02-15T08:41:32.688Z,75.89
2018-02-15T08:44:02.638Z,77.47
2018-02-15T08:46:32.613Z,75.26
2018-02-15T08:49:02.598Z,75.35
2018-02-15T08:51:33.266Z,75.53
2018-02-15T08:54:03.082Z,75.94
2018-02-15T08:56:32.813Z,78.20
2018-02-15T08:59:02.521Z,75.07
2018-02-15T09:01:32.345Z,75.41
2018-02-15T09:04:02.117Z,75.61
2018-02-15T09:06:31.798Z,75.87
2018-02-15T09:09:02.304Z,76.17
2018-02-15T09:11:32.444Z,76.36
2018-02-15T09:14:02.914Z,76.62
2018-02-15T09:16:32.893Z,76.93
2018-02-15T09:19:02.687Z,76.80
2018-02-15T09:21:33.165Z,76.80
2018-02-15T09:24:03.145Z,76.58
2018-02-15T09:26:33.105Z,76.86
2018-02-15T09:29:02.897Z,77.15
2018-02-15T09:31:32.731Z,77.86
2018-02-15T09:34:02.581Z,78.23
2018-02-15T09:36:32.428Z,78.49
2018-02-15T09:39:03.025Z,78.91
2018-02-15T09:41:32.876Z,79.09
2018-02-15T09:44:03.446Z,79.15
2018-02-15T09:46:33.175Z,79.58
2018-02-15T09:49:03.224Z,79.99
2018-02-15T09:51:34.404Z,79.90
2018-02-15T09:54:04.216Z,79.83
2018-02-15T09:56:33.935Z,79.93
2018-02-15T09:59:03.636Z,80.35
2018-02-15T10:01:33.344Z,79.87
2018-02-15T10:04:03.307Z,80.33
2018-02-15T10:06:34.261Z,79.95
2018-02-15T10:09:05.231Z,80.33
2018-02-15T10:11:35.119Z,80.55
2018-02-15T10:14:05.742Z,80.38
2018-02-15T10:16:36.299Z,80.24
2018-02-15T10:19:06.156Z,80.19
2018-02-15T10:21:36.005Z,80.39
2018-02-15T10:24:06.540Z,80.67
2018-02-15T10:26:37.108Z,80.97
2018-02-15T10:29:07.171Z,81.05
2018-02-15T10:31:36.920Z,81.06
2018-02-15T10:34:06.901Z,81.03
2018-02-15T10:36:36.710Z,81.08
2018-02-15T10:39:06.792Z,81.35
2018-02-15T10:41:36.660Z,81.72
2018-02-15T10:44:07.253Z,81.57
2018-02-15T10:46:37.143Z,81.48
2018-02-15T10:49:07.025Z,81.48
2018-02-15T10:51:37.676Z,80.87
2018-02-15T10:54:07.512Z,80.90
2018-02-15T10:56:37.246Z,81.32
2018-02-15T10:59:07.268Z,81.59
2018-02-15T11:01:42.090Z,81.92
2018-02-15T11:04:15.827Z,81.99
2018-02-15T11:06:46.351Z,81.78
2018-02-15T11:09:17.063Z,81.54
2018-02-15T11:11:47.044Z,81.65
2018-02-15T11:14:16.771Z,81.34
2018-02-15T11:16:46.769Z,80.94
2018-02-15T11:19:16.760Z,80.74
2018-02-15T11:21:46.855Z,80.97
2018-02-15T11:24:17.465Z,81.09
2018-02-15T11:26:47.264Z,81.14
2018-02-15T11:29:18.972Z,81.42
2018-02-15T11:31:48.729Z,81.53
2018-02-15T11:34:18.779Z,81.76
2018-02-15T11:36:49.418Z,81.46
2018-02-15T11:39:19.999Z,81.16
2018-02-15T11:41:50.295Z,81.28
2018-02-15T11:44:20.139Z,81.01
2018-02-15T11:46:50.168Z,80.88
2018-02-15T11:49:19.981Z,80.50
2018-02-15T11:51:49.939Z,80.87
2018-02-15T11:54:20.779Z,80.54
2018-02-15T11:56:51.731Z,81.27
2018-02-15T11:59:21.799Z,81.36
2018-02-15T12:01:51.528Z,81.54
2018-02-15T12:04:21.276Z,80.92
2018-02-15T12:06:51.085Z,81.00
2018-02-15T12:09:25.876Z,81.08
2018-02-15T12:11:55.611Z,80.96
2018-02-15T12:14:26.069Z,81.29
2018-02-15T12:16:56.147Z,81.27
2018-02-15T12:19:26.889Z,81.05
2018-02-15T12:21:57.552Z,81.03
2018-02-15T12:24:27.288Z,81.01
2018-02-15T12:26:57.090Z,81.02
2018-02-15T12:29:26.989Z,81.44
2018-02-15T12:31:56.940Z,81.39
2018-02-15T12:34:26.709Z,81.25
2018-02-15T12:36:56.944Z,81.19
2018-02-15T12:39:27.084Z,81.32
2018-02-15T12:41:56.866Z,81.15
2018-02-15T12:44:26.540Z,81.12
2018-02-15T12:46:56.452Z,81.43
2018-02-15T12:49:26.322Z,81.59
2018-02-15T12:51:56.241Z,81.80
2018-02-15T12:54:26.204Z,81.74
2018-02-15T12:56:56.004Z,81.71
2018-02-15T12:59:25.880Z,81.73
2018-02-15T13:01:55.630Z,81.92
2018-02-15T13:04:25.499Z,81.89
2018-02-15T13:06:55.603Z,82.11
2018-02-15T13:09:26.085Z,81.91
2018-02-15T13:11:55.802Z,81.55
2018-02-15T13:14:25.592Z,81.70
2018-02-15T13:16:56.683Z,81.62
2018-02-15T13:19:43.371Z,81.82
2018-02-15T13:22:28.940Z,81.79
2018-02-15T13:24:58.710Z,82.00
2018-02-15T13:27:41.699Z,81.90
2018-02-15T13:30:11.491Z,82.06
2018-02-15T13:32:41.925Z,81.68
2018-02-15T13:35:13.035Z,81.83
2018-02-15T13:37:43.627Z,81.51
2018-02-15T13:40:14.219Z,81.72
2018-02-15T13:42:43.928Z,81.93
2018-02-15T13:45:13.712Z,82.21
2018-02-15T13:47:43.636Z,82.06
2018-02-15T13:50:13.611Z,82.19
2018-02-15T13:52:44.248Z,82.11
2018-02-15T13:55:14.867Z,81.93
2018-02-15T13:57:45.656Z,82.32
2018-02-15T14:00:15.406Z,82.07
2018-02-15T14:02:45.412Z,82.18
2018-02-15T14:05:16.579Z,82.40
2018-02-15T14:07:47.184Z,82.29
2018-02-15T14:10:19.307Z,82.43
2018-02-15T14:12:49.364Z,82.79
2018-02-15T14:15:19.249Z,82.88
2018-02-15T14:17:49.435Z,83.14
2018-02-15T14:20:20.076Z,83.12
2018-02-15T14:22:49.959Z,83.49
2018-02-15T14:25:20.176Z,83.59
2018-02-15T14:27:50.008Z,83.83
2018-02-15T14:30:20.713Z,83.53
2018-02-15T14:32:50.593Z,83.61
2018-02-15T14:35:20.348Z,83.33
2018-02-15T14:37:51.698Z,83.51
2018-02-15T14:40:21.642Z,83.60
2018-02-15T14:42:52.477Z,83.80
2018-02-15T14:45:23.251Z,83.79
2018-02-15T14:47:53.499Z,83.72
2018-02-15T14:50:23.664Z,83.94
2018-02-15T14:52:54.636Z,84.05
2018-02-15T14:55:24.797Z,84.08
2018-02-15T14:57:54.695Z,83.86
2018-02-15T15:00:24.816Z,83.92
2018-02-15T15:02:54.720Z,83.60
2018-02-15T15:05:24.542Z,83.92
2018-02-15T15:07:54.763Z,84.13
2018-02-15T15:10:25.036Z,84.02
2018-02-15T15:12:55.871Z,84.17
2018-02-15T15:15:25.734Z,84.08
2018-02-15T15:17:55.550Z,84.35
2018-02-15T15:20:25.520Z,84.42
2018-02-15T15:22:55.416Z,84.50
2018-02-15T15:25:26.116Z,84.15
2018-02-15T15:27:55.964Z,84.30
2018-02-15T15:30:25.768Z,84.09
2018-02-15T15:32:56.532Z,84.37
2018-02-15T15:35:26.471Z,84.49
2018-02-15T15:37:56.205Z,84.65
2018-02-15T15:40:26.354Z,84.69
2018-02-15T15:42:56.406Z,84.77
2018-02-15T15:45:26.300Z,84.73
2018-02-15T15:47:56.878Z,84.68
2018-02-15T15:50:26.804Z,84.71
2018-02-15T15:52:56.630Z,84.82
2018-02-15T15:55:26.709Z,84.86
2018-02-15T15:57:56.574Z,84.66
2018-02-15T16:00:27.214Z,84.69
2018-02-15T16:02:57.175Z,84.73
2018-02-15T16:05:27.140Z,84.95
2018-02-15T16:07:57.252Z,84.83
2018-02-15T16:10:27.144Z,84.91
2018-02-15T16:12:57.012Z,85.04
2018-02-15T16:15:26.975Z,85.23
2018-02-15T16:17:56.808Z,85.36
2018-02-15T16:20:26.668Z,85.64
2018-02-15T16:22:56.859Z,85.82
2018-02-15T16:25:29.161Z,85.90
2018-02-15T16:27:58.978Z,85.98
2018-02-15T16:30:28.996Z,86.18
2018-02-15T16:32:58.796Z,86.09
2018-02-15T16:35:28.771Z,86.19
2018-02-15T16:37:58.528Z,86.21
2018-02-15T16:40:28.708Z,86.04
2018-02-15T16:43:00.445Z,86.02
2018-02-15T16:45:31.449Z,86.20
2018-02-15T16:48:01.506Z,86.53
2018-02-15T16:50:32.395Z,86.43
2018-02-15T16:53:04.117Z,86.49
2018-02-15T16:55:34.028Z,86.48
2018-02-15T16:58:04.153Z,86.61
2018-02-15T17:00:34.426Z,86.73
2018-02-15T17:03:04.827Z,86.75
2018-02-15T17:05:35.860Z,86.69
2018-02-15T17:08:06.744Z,86.76
2018-02-15T17:10:36.601Z,86.81
2018-02-15T17:13:07.582Z,87.01
2018-02-15T17:15:37.545Z,87.14
2018-02-15T17:18:08.775Z,87.25
2018-02-15T17:20:38.626Z,87.45
2018-02-15T17:23:09.610Z,87.37
2018-02-15T17:25:39.613Z,87.35
2018-02-15T17:28:09.337Z,87.38
2018-02-15T17:30:39.187Z,87.59
2018-02-15T17:33:08.944Z,87.48
2018-02-15T17:35:38.711Z,87.47
2018-02-15T17:38:08.785Z,87.51
2018-02-15T17:40:38.769Z,87.33
2018-02-15T17:43:09.491Z,87.47
2018-02-15T17:45:39.422Z,87.26
2018-02-15T17:48:09.410Z,87.29
2018-02-15T17:50:39.281Z,87.33
2018-02-15T17:53:09.343Z,87.15
2018-02-15T17:55:39.231Z,87.21
2018-02-15T17:58:09.972Z,87.50
2018-02-15T18:00:39.769Z,87.54
2018-02-15T18:03:09.703Z,87.47
2018-02-15T18:05:39.796Z,87.32
2018-02-15T18:08:09.551Z,87.25
2018-02-15T18:10:40.171Z,87.17
2018-02-15T18:13:10.106Z,87.11
2018-02-15T18:15:40.594Z,87.46
2018-02-15T18:18:10.389Z,87.51
2018-02-15T18:20:40.347Z,87.52
2018-02-15T18:23:10.283Z,87.63
2018-02-15T18:25:40.316Z,87.74
2018-02-15T18:28:10.258Z,88.01
2018-02-15T18:30:40.110Z,87.96
2018-02-15T18:33:10.165Z,88.03
2018-02-15T18:35:40.901Z,88.12
2018-02-15T18:38:10.760Z,88.27
2018-02-15T18:40:40.556Z,88.44
2018-02-15T18:43:11.452Z,88.55
2018-02-15T18:45:42.113Z,88.56
2018-02-15T18:48:12.371Z,88.64
2018-02-15T18:50:42.308Z,88.75
2018-02-15T18:53:12.428Z,88.82
2018-02-15T18:55:42.381Z,89.00
2018-02-15T18:58:12.448Z,88.87
2018-02-15T19:00:43.812Z,88.90
2018-02-15T19:03:14.148Z,88.95
2018-02-15T19:05:45.709Z,88.87
2018-02-15T19:08:17.245Z,88.72
2018-02-15T19:10:47.843Z,88.71
2018-02-15T19:13:18.723Z,88.76
2018-02-15T19:15:50.031Z,88.72
2018-02-15T19:18:20.345Z,88.65
2018-02-15T19:20:50.609Z,88.68
2018-02-15T19:23:20.539Z,88.66
2018-02-15T19:25:51.474Z,88.62
2018-02-15T19:28:22.180Z,88.78
2018-02-15T19:30:52.176Z,88.91
2018-02-15T19:33:22.174Z,89.02
2018-02-15T19:35:52.079Z,89.10
2018-02-15T19:38:22.228Z,89.16
2018-02-15T19:40:52.208Z,89.25
2018-02-15T19:43:22.032Z,89.29
2018-02-15T19:45:52.544Z,89.30
2018-02-15T19:48:22.465Z,88.96
2018-02-15T19:50:52.565Z,88.56
2018-02-15T19:53:22.492Z,88.90
2018-02-15T19:55:53.091Z,89.14
2018-02-15T19:58:23.788Z,89.35
2018-02-15T20:00:53.610Z,89.55
2018-02-15T20:03:23.567Z,89.43
2018-02-15T20:05:53.632Z,89.54
2018-02-15T20:08:23.603Z,89.63
2018-02-15T20:10:53.607Z,89.70
2018-02-15T20:13:23.400Z,89.73
2018-02-15T20:15:53.554Z,89.83
2018-02-15T20:18:23.431Z,89.79
2018-02-15T20:20:53.511Z,89.65
2018-02-15T20:23:23.702Z,89.60
2018-02-15T20:25:57.828Z,89.63
2018-02-15T20:28:27.873Z,89.69
2018-02-15T20:30:58.424Z,89.73
2018-02-15T20:33:28.388Z,89.88
2018-02-15T20:35:58.687Z,89.87
2018-02-15T20:38:32.787Z,89.80
2018-02-15T20:41:02.949Z,89.76
2018-02-15T20:43:33.261Z,89.65
2018-02-15T20:46:03.518Z,89.62
2018-02-15T20:48:33.930Z,89.44
2018-02-15T20:51:09.250Z,89.44
2018-02-15T20:53:44.056Z,89.50
2018-02-15T20:56:14.201Z,89.75
2018-02-15T20:58:44.211Z,89.98
2018-02-15T21:01:14.551Z,89.88
2018-02-15T21:03:44.999Z,89.71
2018-02-15T21:06:22.269Z,89.73
2018-02-15T21:08:52.613Z,89.80
2018-02-15T21:11:23.837Z,89.90
2018-02-15T21:13:54.174Z,89.85
2018-02-15T21:16:25.012Z,89.83
2018-02-15T21:18:55.439Z,89.51
2018-02-15T21:21:25.959Z,89.47
2018-02-15T21:23:56.443Z,89.48
2018-02-15T21:26:26.264Z,89.40
2018-02-15T21:28:56.018Z,89.24
2018-02-15T21:31:26.717Z,89.01
2018-02-15T21:33:56.552Z,88.92
2018-02-15T21:36:28.317Z,88.94
2018-02-15T21:38:58.870Z,88.80
2018-02-15T21:41:28.825Z,88.77
2018-02-15T21:43:58.537Z,88.83
2018-02-15T21:46:29.293Z,88.83
2018-02-15T21:48:58.943Z,88.83
2018-02-15T21:51:28.694Z,88.77
2018-02-15T21:53:58.472Z,88.53
2018-02-15T21:56:28.169Z,88.49
2018-02-15T21:58:57.913Z,88.29
2018-02-15T22:01:27.853Z,88.27
2018-02-15T22:03:57.879Z,88.37
2018-02-15T22:06:27.619Z,88.42
2018-02-15T22:08:58.191Z,88.08
2018-02-15T22:11:28.027Z,87.88
2018-02-15T22:13:58.043Z,87.89
2018-02-15T22:16:27.749Z,87.71
2018-02-15T22:18:59.132Z,87.71
2018-02-15T22:21:29.580Z,87.67
2018-02-15T22:23:59.419Z,87.63
2018-02-15T22:26:29.490Z,87.52
2018-02-15T22:29:00.054Z,87.62
2018-02-15T22:31:30.647Z,87.51
2018-02-15T22:34:01.123Z,87.50
2018-02-15T22:36:30.955Z,87.64
2018-02-15T22:39:00.767Z,87.44
2018-02-15T22:41:30.702Z,87.35
2018-02-15T22:44:00.449Z,87.38
2018-02-15T22:46:30.407Z,86.76
2018-02-15T22:49:00.073Z,86.44
2018-02-15T22:51:29.876Z,86.60
2018-02-15T22:54:00.419Z,86.73
2018-02-15T22:56:30.533Z,87.11
2018-02-15T22:59:00.425Z,87.07
2018-02-15T23:01:30.986Z,87.12
2018-02-15T23:04:00.788Z,86.92
2018-02-15T23:06:31.279Z,87.11
2018-02-15T23:09:00.985Z,87.15
2018-02-15T23:11:30.769Z,87.23
2018-02-15T23:14:00.550Z,86.96
2018-02-15T23:16:31.024Z,85.66
2018-02-15T23:19:00.830Z,85.63
2018-02-15T23:21:30.658Z,86.47
2018-02-15T23:24:00.716Z,87.07
2018-02-15T23:26:31.276Z,87.72
2018-02-15T23:29:01.331Z,87.75
2018-02-15T23:31:31.003Z,87.33
2018-02-15T23:34:00.718Z,87.30
2018-02-15T23:36:30.431Z,87.37
2018-02-15T23:39:00.143Z,87.62
2018-02-15T23:41:29.874Z,87.37
2018-02-15T23:43:59.656Z,87.13
2018-02-15T23:46:29.483Z,87.03
2018-02-15T23:48:59.538Z,87.01
2018-02-15T23:51:29.369Z,86.65
2018-02-15T23:54:00.093Z,86.80
2018-02-15T23:56:29.944Z,86.95
2018-02-15T23:58:59.818Z,86.75
